Time;durP1;ratioP1;P1;durP2;ratioP2;P2;SDS_P1;SDS_P2;PMS_P1;PMS_P2;Temp;Humidity;BMP_temperature;BMP_pressure;BME280_temperature;BME280_humidity;BME280_pressure;Samples;Min_cycle;Max_cycle;Signal;HPM_P1;HPM_P2
2023/05/25 00:01:00;;;;;;;3.53;2.40;;;;;;;15.62;71.70;102393.25;4966982;28;20150;-50
2023/05/25 00:03:30;;;;;;;2.17;0.90;;;;;;;15.60;71.82;102386.38;4950516;29;20066;-43
2023/05/25 00:06:02;;;;;;;1.38;0.95;;;;;;;15.60;71.81;102397.53;4950956;29;20039;-43
2023/05/25 00:08:29;;;;;;;1.30;1.17;;;;;;;15.63;71.90;102396.84;4949470;29;20070;-43
2023/05/25 00:10:56;;;;;;;4.60;1.38;;;;;;;15.63;72.01;102391.28;4950963;29;20110;-44
2023/05/25 00:13:23;;;;;;;1.63;0.85;;;;;;;15.62;72.16;102387.66;4950695;29;20490;-43
2023/05/25 00:15:50;;;;;;;2.10;1.33;;;;;;;15.62;72.17;102384.88;4950520;29;20134;-44
2023/05/25 00:18:17;;;;;;;2.78;1.00;;;;;;;15.60;72.24;102376.03;4950842;29;20494;-43
2023/05/25 00:20:46;;;;;;;1.48;1.25;;;;;;;15.57;72.16;102375.88;4950934;29;20125;-44
2023/05/25 00:23:13;;;;;;;2.00;1.30;;;;;;;15.53;72.34;102377.72;4950824;29;20048;-43
2023/05/25 00:25:40;;;;;;;2.47;1.13;;;;;;;15.46;72.15;102366.28;4932967;29;20047;-43
2023/05/25 00:28:07;;;;;;;2.00;1.20;;;;;;;15.40;72.55;102375.97;4950677;29;20043;-43
2023/05/25 00:30:34;;;;;;;1.20;1.00;;;;;;;15.37;72.43;102376.66;4950468;29;20102;-43
2023/05/25 00:33:01;;;;;;;1.33;1.23;;;;;;;15.35;72.77;102384.56;4950286;29;20047;-43
2023/05/25 00:35:28;;;;;;;3.10;1.20;;;;;;;15.33;72.84;102381.28;4949444;28;20120;-43
2023/05/25 00:37:55;;;;;;;2.33;1.00;;;;;;;15.35;72.75;102378.97;4949900;29;20039;-42
2023/05/25 00:40:22;;;;;;;2.72;1.42;;;;;;;15.34;72.85;102382.91;4949532;29;20082;-43
2023/05/25 00:42:51;;;;;;;2.30;1.30;;;;;;;15.32;72.94;102374.06;4949788;29;20047;-43
2023/05/25 00:45:18;;;;;;;1.63;1.20;;;;;;;15.32;72.99;102385.22;4950524;29;20047;-43
2023/05/25 00:47:49;;;;;;;1.45;0.88;;;;;;;15.32;73.25;102388.84;4950333;29;20418;-43
2023/05/25 00:50:20;;;;;;;;;;;;;;;15.31;72.91;102389.97;4951048;29;20050;-43
2023/05/25 00:52:48;;;;;;;4.72;1.23;;;;;;;15.32;72.81;102397.22;4933371;29;20349;-42
2023/05/25 00:55:17;;;;;;;2.33;1.30;;;;;;;15.30;72.62;102393.13;4950222;29;20043;-43
2023/05/25 00:57:50;;;;;;;1.77;1.20;;;;;;;15.30;72.79;102398.69;4949481;29;20058;-46
2023/05/25 01:00:17;;;;;;;2.10;1.20;;;;;;;15.27;72.82;102398.19;4950252;29;20149;-44
2023/05/25 01:02:45;;;;;;;2.78;1.42;;;;;;;15.19;72.74;102393.50;4949410;28;20062;-43
2023/05/25 01:05:16;;;;;;;1.88;1.67;;;;;;;15.13;73.00;102394.03;4949976;29;20056;-43
2023/05/25 01:07:44;;;;;;;2.17;1.35;;;;;;;15.06;73.18;102388.94;4932731;29;20402;-43
2023/05/25 01:10:15;;;;;;;0.98;0.80;;;;;;;14.98;73.08;102395.41;4949898;29;20051;-42
2023/05/25 01:12:44;;;;;;;3.60;1.85;;;;;;;14.90;73.17;102395.44;4950377;29;20035;-43
2023/05/25 01:15:11;;;;;;;4.10;2.45;;;;;;;14.82;73.45;102393.50;4937191;29;20043;-47
2023/05/25 01:17:39;;;;;;;1.63;1.15;;;;;;;14.74;73.44;102397.16;4950555;29;20050;-43
2023/05/25 01:20:06;;;;;;;2.97;1.13;;;;;;;14.70;73.58;102382.22;4950292;29;20047;-47
2023/05/25 01:22:50;;;;;;;1.48;1.15;;;;;;;14.64;73.86;102393.56;4950507;29;20055;-52
2023/05/25 01:25:29;;;;;;;4.00;1.65;;;;;;;14.58;73.82;102394.91;4950374;29;20043;-42
2023/05/25 01:28:02;;;;;;;5.95;1.38;;;;;;;14.54;73.88;102398.69;4950547;29;20365;-42
2023/05/25 01:30:31;;;;;;;2.83;1.98;;;;;;;14.51;73.99;102390.97;4949928;29;20417;-43
2023/05/25 01:32:59;;;;;;;1.83;1.50;;;;;;;14.41;74.08;102399.69;4949865;29;20118;-42
2023/05/25 01:35:27;;;;;;;2.80;1.50;;;;;;;14.38;73.88;102386.41;4950228;29;20416;-43
2023/05/25 01:37:54;;;;;;;1.45;1.23;;;;;;;14.33;73.89;102398.56;4950282;29;20105;-43
2023/05/25 01:40:21;;;;;;;4.15;1.50;;;;;;;14.26;74.18;102406.59;4949831;29;20066;-43
2023/05/25 01:42:48;;;;;;;1.88;1.55;;;;;;;14.22;74.37;102404.75;4950196;29;20039;-44
2023/05/25 01:45:15;;;;;;;3.92;1.50;;;;;;;14.15;74.72;102401.66;4950195;29;20040;-44
2023/05/25 01:47:54;;;;;;;1.50;1.30;;;;;;;14.14;74.78;102400.84;4951507;28;20041;-50
2023/05/25 01:50:39;;;;;;;1.75;1.60;;;;;;;14.14;74.63;102394.47;4952573;29;20043;-42
2023/05/25 01:53:11;;;;;;;3.95;1.48;;;;;;;14.09;74.70;102405.75;4953472;29;20441;-42
2023/05/25 01:55:43;;;;;;;;;;;;;;;14.03;74.63;102405.94;4953253;29;20043;-43
2023/05/25 01:58:14;;;;;;;2.75;1.60;;;;;;;14.00;74.71;102405.78;4953348;29;19929;-42
2023/05/25 02:00:41;;;;;;;2.80;1.45;;;;;;;14.00;75.00;102405.78;4953305;28;20102;-43
2023/05/25 02:03:09;;;;;;;1.73;1.30;;;;;;;13.98;75.06;102403.31;4935796;29;20058;-43
2023/05/25 02:05:37;;;;;;;4.18;1.67;;;;;;;13.96;74.99;102399.22;4953397;29;20131;-44
2023/05/25 02:08:03;;;;;;;2.05;1.35;;;;;;;13.94;75.18;102404.31;4952464;29;20568;-43
2023/05/25 02:10:30;;;;;;;2.15;1.58;;;;;;;13.84;75.37;102405.47;4953589;29;20059;-42
2023/05/25 02:12:57;;;;;;;3.58;1.83;;;;;;;13.80;75.52;102404.47;4953101;29;20051;-46
2023/05/25 02:15:24;;;;;;;1.83;1.20;;;;;;;13.77;75.67;102401.50;4952718;28;20413;-43
2023/05/25 02:17:51;;;;;;;2.47;1.60;;;;;;;13.72;75.59;102399.72;4952848;29;20051;-42
2023/05/25 02:20:17;;;;;;;2.45;1.63;;;;;;;13.68;75.94;102415.44;4952886;29;20071;-44
2023/05/25 02:22:44;;;;;;;2.13;1.40;;;;;;;13.65;75.87;102409.69;4949510;28;20134;-42
2023/05/25 02:25:11;;;;;;;4.93;1.98;;;;;;;13.64;75.88;102411.66;4951665;29;20043;-42
2023/05/25 02:27:38;;;;;;;2.35;1.55;;;;;;;13.61;76.13;102417.84;4949363;28;20211;-42
2023/05/25 02:30:06;;;;;;;2.10;1.77;;;;;;;13.59;76.17;102417.38;4949963;28;20074;-42
2023/05/25 02:32:34;;;;;;;4.35;2.00;;;;;;;13.58;76.32;102426.84;4948384;29;20039;-47
2023/05/25 02:35:01;;;;;;;2.15;2.00;;;;;;;13.53;76.23;102417.88;4951249;29;20153;-45
2023/05/25 02:37:27;;;;;;;3.40;1.77;;;;;;;13.50;76.44;102416.56;4949466;29;20051;-42
2023/05/25 02:39:54;;;;;;;3.13;1.83;;;;;;;13.49;76.46;102422.44;4951320;29;20043;-42
2023/05/25 02:42:21;;;;;;;2.13;1.48;;;;;;;13.43;76.39;102421.75;4949378;29;20062;-43
2023/05/25 02:44:48;;;;;;;2.28;1.45;;;;;;;13.37;76.45;102418.31;4949410;28;20031;-43
2023/05/25 02:47:16;;;;;;;2.75;1.73;;;;;;;13.31;76.56;102407.66;4946906;29;20410;-46
2023/05/25 02:49:44;;;;;;;4.35;1.67;;;;;;;13.23;76.55;102419.59;4951041;29;20051;-42
2023/05/25 02:52:11;;;;;;;1.77;1.48;;;;;;;13.19;76.42;102418.56;4950804;29;20114;-42
2023/05/25 02:54:38;;;;;;;3.58;2.20;;;;;;;13.18;76.52;102428.06;4949410;29;20126;-42
2023/05/25 02:57:05;;;;;;;4.07;2.28;;;;;;;13.16;76.46;102433.13;4949842;29;20446;-43
2023/05/25 02:59:32;;;;;;;4.20;2.03;;;;;;;13.13;76.72;102436.56;4930457;29;20401;-42
2023/05/25 03:01:59;;;;;;;3.53;1.95;;;;;;;13.09;76.82;102419.69;5000921;23;20058;-42
2023/05/25 03:04:26;;;;;;;6.72;2.97;;;;;;;13.07;76.91;102437.84;4968162;28;20046;-43
2023/05/25 03:06:52;;;;;;;3.13;2.40;;;;;;;13.04;76.91;102438.44;4968512;28;20142;-43
2023/05/25 03:09:19;;;;;;;2.40;1.95;;;;;;;13.01;77.00;102450.22;4968228;28;20378;-42
2023/05/25 03:11:46;;;;;;;3.63;1.80;;;;;;;12.98;77.15;102445.28;4951782;28;20047;-43
2023/05/25 03:14:13;;;;;;;4.38;2.20;;;;;;;12.96;77.18;102447.56;4968640;28;20051;-44
2023/05/25 03:16:40;;;;;;;2.55;2.03;;;;;;;12.92;77.25;102452.16;4967598;28;20043;-43
2023/05/25 03:19:07;;;;;;;3.92;2.13;;;;;;;12.89;77.03;102452.78;4969552;28;20385;-43
2023/05/25 03:21:34;;;;;;;5.35;2.00;;;;;;;12.85;77.08;102447.03;4968650;28;20053;-43
2023/05/25 03:24:00;;;;;;;4.72;2.22;;;;;;;12.83;77.02;102441.81;4969332;28;20055;-42
2023/05/25 03:26:27;;;;;;;5.35;2.42;;;;;;;12.80;77.03;102445.22;4974535;28;20379;-43
2023/05/25 03:28:54;;;;;;;2.65;1.65;;;;;;;12.77;77.01;102451.41;4970927;28;20389;-43
2023/05/25 03:31:22;;;;;;;4.13;2.30;;;;;;;12.74;77.06;102449.25;4960019;28;20051;-43
2023/05/25 03:33:48;;;;;;;4.05;2.53;;;;;;;12.70;77.13;102453.84;4970373;28;20569;-42
2023/05/25 03:36:16;;;;;;;5.13;2.08;;;;;;;12.69;77.27;102460.50;4970980;28;20078;-42
2023/05/25 03:38:43;;;;;;;2.70;2.20;;;;;;;12.69;77.20;102460.50;4970692;28;20078;-42
2023/05/25 03:41:10;;;;;;;3.10;1.80;;;;;;;12.69;77.08;102460.50;4970671;28;20077;-44
2023/05/25 03:43:37;;;;;;;5.97;2.22;;;;;;;12.66;76.96;102472.25;4973887;28;20114;-43
2023/05/25 03:46:04;;;;;;;3.92;1.58;;;;;;;12.64;76.97;102459.81;4970802;28;20053;-45
2023/05/25 03:48:31;;;;;;;3.47;1.90;;;;;;;12.60;77.31;102458.84;4969837;28;20055;-45
2023/05/25 03:50:57;;;;;;;4.72;2.10;;;;;;;12.55;77.01;102450.63;4970468;28;20082;-45
2023/05/25 03:53:24;;;;;;;4.53;2.33;;;;;;;12.53;77.03;102456.50;4970284;28;20086;-42
2023/05/25 03:55:51;;;;;;;3.53;1.73;;;;;;;12.48;76.95;102453.00;4966827;28;20493;-43
2023/05/25 03:58:18;;;;;;;6.05;2.25;;;;;;;12.45;76.92;102462.81;4967619;28;20046;-44
2023/05/25 04:00:47;;;;;;;7.72;2.20;;;;;;;12.41;77.03;102464.59;4963626;28;20074;-44
2023/05/25 04:03:15;;;;;;;4.68;2.67;;;;;;;12.36;77.19;102467.50;4963487;28;20054;-43
2023/05/25 04:05:44;;;;;;;8.10;3.33;;;;;;;12.31;77.36;102470.38;4967756;28;20062;-43
2023/05/25 04:08:16;;;;;;;2.95;2.00;;;;;;;12.26;77.50;102473.28;4968623;28;20051;-44
2023/05/25 04:10:44;;;;;;;;;;;;;;;12.23;77.51;102465.59;4962132;28;20101;-43
2023/05/25 04:13:11;;;;;;;4.07;2.88;;;;;;;12.19;77.36;102464.56;4968291;28;19972;-45
2023/05/25 04:15:38;;;;;;;7.32;2.15;;;;;;;12.16;77.56;102471.56;4967004;28;20038;-43
2023/05/25 04:18:05;;;;;;;6.65;2.83;;;;;;;12.16;77.56;102474.34;4967530;28;20066;-43
2023/05/25 04:20:32;;;;;;;5.25;2.42;;;;;;;12.14;77.43;102465.53;4968959;28;20042;-44
2023/05/25 04:22:59;;;;;;;6.60;3.45;;;;;;;12.12;77.49;102467.78;4969945;28;20471;-43
2023/05/25 04:25:26;;;;;;;3.72;2.22;;;;;;;12.09;77.57;102462.88;4968270;28;20089;-42
2023/05/25 04:27:55;;;;;;;4.05;2.22;;;;;;;11.99;77.56;102465.84;4968956;28;20031;-44
2023/05/25 04:30:22;;;;;;;8.73;2.33;;;;;;;11.98;77.78;102468.97;4949468;28;20051;-43
2023/05/25 04:32:49;;;;;;;3.88;2.22;;;;;;;12.00;77.77;102463.91;4967054;28;20082;-44
2023/05/25 04:35:19;;;;;;;7.18;2.20;;;;;;;12.02;77.83;102467.22;4968623;28;20071;-42
2023/05/25 04:37:47;;;;;;;4.53;2.30;;;;;;;12.00;77.70;102473.06;4968502;28;20050;-42
2023/05/25 04:40:14;;;;;;;4.45;1.75;;;;;;;11.97;77.79;102478.41;4969233;28;20046;-43
2023/05/25 04:42:40;;;;;;;7.10;2.78;;;;;;;11.94;77.85;102484.59;4967516;28;20047;-43
2023/05/25 04:45:09;;;;;;;5.20;2.22;;;;;;;11.89;78.16;102485.53;4967301;28;20062;-43
2023/05/25 04:47:39;;;;;;;5.07;2.22;;;;;;;11.90;78.19;102486.34;4950259;28;20397;-44
2023/05/25 04:50:09;;;;;;;3.88;2.67;;;;;;;11.92;78.24;102484.06;4976536;28;20060;-43
2023/05/25 04:52:36;;;;;;;7.20;2.53;;;;;;;11.93;78.29;102480.19;4969560;28;20100;-43
2023/05/25 04:55:03;;;;;;;3.92;1.90;;;;;;;11.92;78.24;102484.91;4970042;28;20484;-43
2023/05/25 04:57:30;;;;;;;7.38;2.70;;;;;;;11.92;78.40;102489.63;4968739;28;20046;-49
2023/05/25 04:59:57;;;;;;;5.22;2.50;;;;;;;11.92;78.48;102490.44;4969599;28;20522;-43
2023/05/25 05:02:25;;;;;;;7.47;3.28;;;;;;;11.88;78.28;102483.06;4969577;28;20054;-48
2023/05/25 05:04:52;;;;;;;4.80;2.55;;;;;;;11.88;78.28;102497.78;4969826;28;20411;-43
2023/05/25 05:07:22;;;;;;;9.02;2.40;;;;;;;11.86;78.29;102502.00;4973225;28;20147;-43
2023/05/25 05:09:49;;;;;;;3.38;2.00;;;;;;;11.81;78.32;102499.34;4969733;28;20047;-43
2023/05/25 05:12:16;;;;;;;6.90;2.58;;;;;;;11.78;78.51;102499.94;4969679;28;20305;-43
2023/05/25 05:14:43;;;;;;;6.60;2.70;;;;;;;11.76;78.59;102496.66;4969368;28;20043;-43
2023/05/25 05:17:10;;;;;;;6.10;4.20;;;;;;;11.75;78.59;102490.28;4969453;28;20053;-45
2023/05/25 05:19:37;;;;;;;6.97;2.60;;;;;;;11.77;78.42;102493.56;4966383;28;20047;-43
2023/05/25 05:22:04;;;;;;;6.75;2.75;;;;;;;11.76;78.48;102502.19;4970188;28;20047;-43
2023/05/25 05:24:31;;;;;;;7.20;2.33;;;;;;;11.80;78.46;102501.28;4973268;28;20070;-44
2023/05/25 05:26:58;;;;;;;5.13;2.20;;;;;;;11.81;78.32;102502.13;4972732;28;20042;-44
2023/05/25 05:29:27;;;;;;;6.95;2.78;;;;;;;11.80;78.47;102506.00;4972886;28;20445;-43
2023/05/25 05:31:54;;;;;;;5.28;2.25;;;;;;;11.82;78.47;102512.06;4972632;28;20138;-44
2023/05/25 05:34:21;;;;;;;8.05;2.50;;;;;;;11.86;78.42;102499.22;4972916;28;20053;-43
2023/05/25 05:36:48;;;;;;;11.13;2.78;;;;;;;11.87;78.25;102506.41;4973170;28;20055;-43
2023/05/25 05:39:23;;;;;;;9.20;3.55;;;;;;;11.88;78.38;102514.44;4972581;28;20149;-43
2023/05/25 05:41:50;;;;;;;5.60;2.38;;;;;;;11.90;78.21;102503.84;4966622;28;20062;-44
2023/05/25 05:44:19;;;;;;;7.65;2.75;;;;;;;11.96;78.16;102507.31;4954474;28;20382;-46
2023/05/25 05:46:46;;;;;;;9.07;2.58;;;;;;;11.95;78.16;102494.56;4972271;28;20050;-43
2023/05/25 05:49:13;;;;;;;10.10;2.60;;;;;;;12.00;78.16;102498.03;4971531;28;20105;-44
2023/05/25 05:51:39;;;;;;;10.27;3.90;;;;;;;12.04;77.96;102503.81;4970170;28;20043;-43
2023/05/25 05:54:06;;;;;;;6.40;2.20;;;;;;;12.05;77.96;102510.97;4970551;28;20404;-45
2023/05/25 05:56:33;;;;;;;7.60;2.55;;;;;;;12.07;77.85;102514.28;4972212;28;20067;-45
2023/05/25 05:59:00;;;;;;;6.25;2.20;;;;;;;12.11;77.72;102505.00;4969252;28;20077;-44
2023/05/25 06:01:27;;;;;;;5.07;2.70;;;;;;;12.15;77.69;102499.66;4976745;28;20061;-43
2023/05/25 06:03:54;;;;;;;10.85;3.13;;;;;;;12.20;77.75;102507.88;4971488;28;20047;-43
2023/05/25 06:06:21;;;;;;;6.50;3.65;;;;;;;12.22;77.54;102511.16;4973270;28;20515;-43
2023/05/25 06:08:48;;;;;;;9.05;2.97;;;;;;;12.23;77.42;102504.47;4971021;28;20043;-44
2023/05/25 06:11:15;;;;;;;6.20;2.83;;;;;;;12.24;77.48;102519.97;4968068;28;20065;-44
2023/05/25 06:13:42;;;;;;;5.38;2.58;;;;;;;12.28;77.62;102520.19;4972262;28;20466;-46
2023/05/25 06:16:12;;;;;;;13.13;3.83;;;;;;;12.34;77.46;102511.41;4967296;28;20070;-47
2023/05/25 06:18:38;;;;;;;11.13;2.88;;;;;;;12.36;77.17;102523.03;4968346;28;20054;-44
2023/05/25 06:21:05;;;;;;;4.43;2.70;;;;;;;12.33;77.29;102529.22;4969664;28;20054;-43
2023/05/25 06:23:32;;;;;;;11.45;4.00;;;;;;;12.33;77.25;102529.22;4954063;28;20043;-43
2023/05/25 06:26:04;;;;;;;8.27;2.92;;;;;;;12.37;77.45;102524.66;4970592;28;20130;-50
2023/05/25 06:28:31;;;;;;;8.48;3.05;;;;;;;12.43;77.07;102528.97;4969567;28;20101;-44
2023/05/25 06:30:58;;;;;;;5.72;2.70;;;;;;;12.45;77.12;102523.09;4966901;28;20047;-46
2023/05/25 06:33:25;;;;;;;6.80;3.50;;;;;;;12.51;77.03;102530.19;4966307;28;20058;-44
2023/05/25 06:35:55;;;;;;;17.90;3.40;;;;;;;12.61;77.15;102535.47;4969488;28;20401;-45
2023/05/25 06:38:23;;;;;;;8.98;3.25;;;;;;;12.64;76.88;102541.22;4966023;28;20568;-46
2023/05/25 06:40:50;;;;;;;7.32;3.13;;;;;;;12.65;76.85;102542.88;4968784;28;20034;-44
2023/05/25 06:43:17;;;;;;;9.27;3.28;;;;;;;12.69;76.85;102541.09;4979109;28;20043;-47
2023/05/25 06:45:44;;;;;;;7.05;3.22;;;;;;;12.74;76.57;102548.50;4971505;28;20039;-44
2023/05/25 06:48:12;;;;;;;7.18;3.15;;;;;;;12.76;76.48;102541.47;4954458;28;20571;-48
2023/05/25 06:50:39;;;;;;;11.93;3.28;;;;;;;12.83;76.53;102547.44;4970931;28;20488;-47
2023/05/25 06:53:06;;;;;;;10.75;2.58;;;;;;;12.92;76.45;102558.59;4971386;28;20054;-44
2023/05/25 06:55:32;;;;;;;9.00;3.00;;;;;;;12.98;76.37;102556.50;4971004;28;20515;-43
2023/05/25 06:57:59;;;;;;;9.90;2.67;;;;;;;13.05;76.29;102563.25;4971696;28;20559;-44
2023/05/25 07:00:26;;;;;;;5.90;2.88;;;;;;;13.13;76.30;102559.72;4970953;28;20050;-44
2023/05/25 07:02:53;;;;;;;13.13;4.50;;;;;;;13.20;76.07;102565.69;4969178;28;20059;-44
2023/05/25 07:05:20;;;;;;;10.55;3.33;;;;;;;13.24;75.71;102565.84;4970670;28;20047;-46
2023/05/25 07:07:47;;;;;;;8.32;3.60;;;;;;;13.26;75.64;102560.81;4967729;28;20038;-45
2023/05/25 07:10:14;;;;;;;11.48;4.43;;;;;;;13.30;75.80;102564.56;4967116;28;20043;-46
2023/05/25 07:12:41;;;;;;;13.98;3.97;;;;;;;13.40;75.75;102575.41;4969975;28;20096;-44
2023/05/25 07:15:09;;;;;;;11.07;3.30;;;;;;;13.46;75.63;102574.16;4967593;28;20081;-43
2023/05/25 07:17:37;;;;;;;9.95;2.70;;;;;;;13.52;75.65;102572.88;4967444;28;20138;-44
2023/05/25 07:20:05;;;;;;;11.45;3.10;;;;;;;13.54;76.00;102564.19;4968036;28;20121;-43
2023/05/25 07:22:32;;;;;;;13.75;4.72;;;;;;;13.60;76.39;102571.25;4966959;28;20085;-47
2023/05/25 07:24:59;;;;;;;11.80;3.20;;;;;;;13.67;76.78;102566.88;4968425;28;20046;-44
2023/05/25 07:27:25;;;;;;;16.08;3.20;;;;;;;13.78;77.07;102581.31;4970841;28;20055;-44
2023/05/25 07:29:52;;;;;;;7.43;2.78;;;;;;;13.90;77.51;102573.97;4970135;28;20043;-46
2023/05/25 07:32:19;;;;;;;11.73;2.85;;;;;;;14.02;77.91;102567.78;4970968;28;20121;-44
2023/05/25 07:34:46;;;;;;;9.05;3.03;;;;;;;14.13;78.26;102566.34;4970746;28;20122;-44
2023/05/25 07:37:12;;;;;;;6.18;2.30;;;;;;;14.26;78.39;102564.56;4970544;28;20134;-44
2023/05/25 07:39:39;;;;;;;9.40;2.83;;;;;;;14.44;79.09;102566.25;4970210;28;20101;-41
2023/05/25 07:42:06;;;;;;;9.48;2.75;;;;;;;14.69;79.61;102567.41;4969791;28;20046;-44
2023/05/25 07:44:34;;;;;;;9.77;2.85;;;;;;;14.98;80.13;102565.56;4959400;28;20039;-45
2023/05/25 07:47:00;;;;;;;15.82;2.63;;;;;;;15.31;80.31;102574.16;4970499;28;20042;-50
2023/05/25 07:49:27;;;;;;;9.63;2.60;;;;;;;15.69;80.78;102568.63;4952810;28;20074;-45
2023/05/25 07:51:54;;;;;;;11.05;3.28;;;;;;;16.20;80.43;102562.72;4970316;28;20054;-44
2023/05/25 07:54:21;;;;;;;10.25;2.80;;;;;;;16.73;78.57;102569.59;4970439;28;20493;-43
2023/05/25 07:56:48;;;;;;;8.77;2.80;;;;;;;17.32;76.39;102576.56;4970061;28;20528;-49
2023/05/25 07:59:15;;;;;;;9.27;3.45;;;;;;;18.07;73.53;102585.50;4970200;28;20046;-42
2023/05/25 08:01:41;;;;;;;14.70;3.85;;;;;;;18.74;70.36;102582.00;4969276;28;20118;-42
2023/05/25 08:04:08;;;;;;;6.22;2.70;;;;;;;19.48;67.14;102588.91;4970635;28;20047;-43
2023/05/25 08:06:35;;;;;;;10.00;2.78;;;;;;;20.09;64.58;102578.00;4970195;28;20485;-44
2023/05/25 08:09:03;;;;;;;5.72;2.58;;;;;;;20.44;60.98;102587.25;4970222;28;20063;-44
2023/05/25 08:11:30;;;;;;;11.82;3.15;;;;;;;20.93;59.10;102593.97;4969375;28;20101;-48
2023/05/25 08:13:58;;;;;;;9.55;4.05;;;;;;;21.57;57.57;102600.84;4970506;28;20082;-43
2023/05/25 08:16:26;;;;;;;12.32;2.85;;;;;;;22.12;55.50;102605.03;4969764;28;20126;-44
2023/05/25 08:18:52;;;;;;;9.02;3.00;;;;;;;22.61;53.79;102599.31;4969942;28;20141;-44
2023/05/25 08:21:19;;;;;;;12.13;2.78;;;;;;;22.91;51.83;102608.59;4951835;28;20386;-44
2023/05/25 08:23:46;;;;;;;10.70;3.05;;;;;;;23.03;50.84;102611.19;4970731;28;20046;-44
2023/05/25 08:26:14;;;;;;;8.60;2.53;;;;;;;22.99;49.55;102610.31;4970093;28;20526;-44
2023/05/25 08:29:03;;;;;;;11.52;3.25;;;;;;;23.19;48.30;102605.31;4969451;28;20074;-43
2023/05/25 08:31:31;;;;;;;7.85;1.95;;;;;;;23.43;47.08;102601.97;4969056;28;20046;-45
2023/05/25 08:34:01;;;;;;;9.85;2.22;;;;;;;23.68;45.99;102590.88;4969498;28;20081;-48
2023/05/25 08:36:28;;;;;;;9.35;2.83;;;;;;;24.11;45.01;102587.22;4970410;28;20047;-43
2023/05/25 08:38:55;;;;;;;11.52;2.42;;;;;;;24.45;43.80;102599.16;4952296;28;20604;-46
2023/05/25 08:41:22;;;;;;;7.97;2.30;;;;;;;24.66;43.62;102602.91;4968920;28;20043;-46
2023/05/25 08:43:49;;;;;;;7.25;2.50;;;;;;;24.74;42.25;102603.75;4969762;28;20097;-47
2023/05/25 08:46:27;;;;;;;9.00;2.33;;;;;;;24.62;41.95;102602.06;4952945;28;20034;-45
2023/05/25 08:49:02;;;;;;;6.78;2.75;;;;;;;24.70;41.21;102595.22;4951540;28;20054;-44
2023/05/25 08:51:38;;;;;;;7.65;2.20;;;;;;;24.57;40.84;102602.44;4956555;28;20482;-43
2023/05/25 08:54:07;;;;;;;7.80;2.90;;;;;;;24.72;40.22;102611.84;4957475;28;20054;-44
2023/05/25 08:56:58;;;;;;;8.10;2.85;;;;;;;24.99;40.08;102607.53;4969594;28;20512;-48
2023/05/25 08:59:28;;;;;;;9.77;2.60;;;;;;;25.01;39.63;102607.13;4972740;28;20047;-44
2023/05/25 09:02:04;;;;;;;12.13;3.15;;;;;;;25.02;38.98;102600.28;4972768;28;20629;-44
2023/05/25 09:04:33;;;;;;;6.10;2.85;;;;;;;25.15;37.86;102596.63;4973962;28;20473;-43
2023/05/25 09:07:00;;;;;;;9.18;3.05;;;;;;;25.31;36.77;102599.91;4973276;28;20055;-43
2023/05/25 09:09:38;;;;;;;8.50;2.25;;;;;;;25.29;35.95;102593.03;4966233;28;20057;-43
2023/05/25 09:12:06;;;;;;;5.47;2.38;;;;;;;25.31;35.75;102594.25;4973158;28;20102;-48
2023/05/25 09:14:34;;;;;;;7.35;2.47;;;;;;;25.21;35.42;102599.91;4972404;28;20109;-48
2023/05/25 09:17:00;;;;;;;9.57;2.92;;;;;;;25.21;35.36;102588.56;4973962;28;20098;-45
2023/05/25 09:19:27;;;;;;;5.45;2.00;;;;;;;25.33;35.10;102593.88;4955921;28;20459;-44
2023/05/25 09:21:54;;;;;;;12.15;3.95;;;;;;;25.35;34.65;102594.25;4972444;28;20047;-44
2023/05/25 09:24:40;;;;;;;7.57;2.38;;;;;;;25.41;33.87;102598.34;4973016;28;20701;-49
2023/05/25 09:27:10;;;;;;;8.68;3.38;;;;;;;25.48;34.23;102603.22;4973168;28;20061;-44
2023/05/25 09:29:38;;;;;;;7.60;2.23;;;;;;;25.51;33.61;102603.25;4973430;28;20039;-44
2023/05/25 09:32:07;;;;;;;6.32;2.17;;;;;;;25.66;34.14;102596.34;4955476;28;20058;-45
2023/05/25 09:34:34;;;;;;;6.40;2.30;;;;;;;25.80;33.32;102599.22;4955385;28;20043;-46
2023/05/25 09:37:17;;;;;;;5.70;2.45;;;;;;;25.80;32.75;102598.41;4973123;28;20047;-44
2023/05/25 09:39:46;;;;;;;5.13;2.22;;;;;;;25.94;32.75;102599.22;4962182;28;20504;-43
2023/05/25 09:42:13;;;;;;;6.88;3.35;;;;;;;25.99;32.83;102598.81;4972061;28;20050;-43
2023/05/25 09:44:41;;;;;;;7.80;2.03;;;;;;;26.00;32.69;102599.59;4973347;28;20053;-46
2023/05/25 09:47:09;;;;;;;6.05;2.55;;;;;;;26.11;32.69;102591.88;4972776;28;20043;-43
2023/05/25 09:49:35;;;;;;;9.50;3.20;;;;;;;26.23;32.71;102591.50;4973081;28;20440;-48
2023/05/25 09:52:02;;;;;;;8.00;2.58;;;;;;;26.20;32.08;102594.34;4971959;28;20497;-43
2023/05/25 09:54:30;;;;;;;8.40;2.45;;;;;;;26.09;32.25;102590.66;4973042;28;20046;-44
2023/05/25 09:56:58;;;;;;;8.25;3.15;;;;;;;26.17;32.33;102597.97;4955673;28;20378;-43
2023/05/25 09:59:25;;;;;;;5.97;2.28;;;;;;;26.17;32.08;102598.81;4972882;28;20109;-43
2023/05/25 10:01:52;;;;;;;5.75;2.40;;;;;;;26.32;31.49;102600.38;4970836;28;20386;-47
2023/05/25 10:04:19;;;;;;;5.90;1.73;;;;;;;26.31;30.91;102595.13;4972263;28;20051;-49
2023/05/25 10:06:50;;;;;;;10.32;2.83;;;;;;;26.18;30.59;102588.25;4972494;28;20074;-42
2023/05/25 10:09:18;;;;;;;4.60;1.85;;;;;;;26.19;30.86;102593.53;4972608;28;20042;-45
2023/05/25 10:11:46;;;;;;;5.32;2.72;;;;;;;26.31;30.52;102595.13;4954617;28;20078;-44
2023/05/25 10:14:18;;;;;;;5.13;1.83;;;;;;;26.25;30.52;102591.09;4972726;28;20062;-44
2023/05/25 10:16:50;;;;;;;6.85;2.22;;;;;;;26.04;30.73;102600.41;4972434;28;20176;-44
2023/05/25 10:19:40;;;;;;;5.95;2.05;;;;;;;25.89;31.07;102591.09;4972384;28;20041;-47
2023/05/25 10:22:22;;;;;;;7.68;2.15;;;;;;;25.78;30.97;102593.13;4971544;28;20051;-46
2023/05/25 10:25:03;;;;;;;11.48;2.47;;;;;;;25.63;31.65;102587.88;4972423;28;20043;-48
2023/05/25 10:27:40;;;;;;;9.83;2.83;;;;;;;25.41;31.64;102587.00;4972279;28;20054;-46
2023/05/25 10:30:08;;;;;;;5.43;2.13;;;;;;;25.17;31.58;102596.25;4971091;28;20054;-47
2023/05/25 10:32:36;;;;;;;6.50;2.47;;;;;;;24.91;31.64;102596.56;4969006;28;20047;-46
2023/05/25 10:35:07;;;;;;;4.13;2.17;;;;;;;24.82;31.71;102594.09;4972160;28;20039;-48
2023/05/25 10:37:35;;;;;;;4.90;1.73;;;;;;;24.57;32.50;102596.78;4954399;28;20113;-48
2023/05/25 10:40:02;;;;;;;5.68;1.83;;;;;;;24.43;32.82;102588.22;4971488;28;20061;-48
2023/05/25 10:42:29;;;;;;;10.25;1.90;;;;;;;24.25;33.08;102586.50;4971103;28;20041;-47
2023/05/25 10:44:57;;;;;;;7.40;1.98;;;;;;;23.97;33.08;102593.53;4972188;28;20117;-47
2023/05/25 10:47:24;;;;;;;9.05;2.20;;;;;;;23.83;33.80;102592.63;4972008;28;20408;-48
2023/05/25 10:50:00;;;;;;;5.75;2.53;;;;;;;23.71;34.02;102590.91;4971717;28;20039;-49
2023/05/25 10:52:28;;;;;;;6.30;1.58;;;;;;;23.54;34.29;102588.72;4971028;28;20039;-46
2023/05/25 10:54:56;;;;;;;4.05;1.45;;;;;;;23.33;34.01;102589.28;4971321;28;20050;-46
2023/05/25 10:57:24;;;;;;;5.88;2.10;;;;;;;22.92;34.15;102587.63;4972216;28;20058;-47
2023/05/25 11:00:01;;;;;;;6.07;1.88;;;;;;;22.74;34.39;102581.75;4971471;28;20104;-52
2023/05/25 11:02:28;;;;;;;5.05;1.60;;;;;;;22.62;34.23;102579.16;4967195;28;20055;-46
2023/05/25 11:05:27;;;;;;;5.97;1.58;;;;;;;22.57;34.55;102585.13;4971495;28;20047;-48
2023/05/25 11:07:55;;;;;;;5.18;2.10;;;;;;;22.40;34.99;102578.03;4953593;28;20077;-46
2023/05/25 11:10:48;;;;;;;8.13;2.55;;;;;;;22.30;35.05;102584.34;4970483;28;20054;-47
2023/05/25 11:13:22;;;;;;;9.30;2.72;;;;;;;22.07;35.20;102585.59;4948787;28;20121;-46
2023/05/25 11:16:28;;;;;;;4.18;1.58;;;;;;;21.81;35.60;102567.47;4971031;28;20058;-51
2023/05/25 11:18:57;;;;;;;6.35;2.40;;;;;;;21.66;36.51;102570.41;4961982;28;20054;-45
2023/05/25 11:21:26;;;;;;;6.13;1.90;;;;;;;21.66;36.60;102559.13;4969143;28;20043;-55
2023/05/25 11:23:54;;;;;;;10.07;1.90;;;;;;;21.61;36.63;102565.06;4970442;28;20055;-46
2023/05/25 11:26:27;;;;;;;4.43;1.58;;;;;;;21.51;36.41;102562.88;4970778;28;20057;-46
2023/05/25 11:28:57;;;;;;;5.10;1.92;;;;;;;21.35;35.69;102570.66;4971122;28;20137;-46
2023/05/25 11:31:29;;;;;;;4.75;1.58;;;;;;;21.25;35.96;102569.28;4965740;28;20047;-47